Shin Yu Maru — JD3290 — position and weather

sailwx.info

Track history (hours):
 
Tides and Currents Weather Stations Pressure Air Temp Water Temp Dewpoint Dewpoint Depression Visibility Wind Speed Wind Dir Waves Ship Positions

Shin Yu Maru

Last reported at 2018-Feb-20 05:30 UTC. Time now 2018-Feb-20 05:38 UTC.
Position N 34°20' E 132°30'.

Length 74 m; draft 4.7 m.

Type: Cargo ship. MMSI: 431003256.

Date/timePositionNaut miles runAvg speedWind from/ knotsBaromVisibWave heightAir tempDewpointWater temp
2018-Feb-20 05:30N 34°20' E 132°30'0 0.0
2018-Feb-20 05:00N 34°20' E 132°30'0 0.0
2018-Feb-20 04:27N 34°20' E 132°30'0 0.0
2018-Feb-20 04:00N 34°20' E 132°30'0 0.0
2018-Feb-20 03:30N 34°20' E 132°30'0 0.0
2018-Feb-20 03:00N 34°20' E 132°30'0 0.0
2018-Feb-20 02:30N 34°20' E 132°30'0 0.0
2018-Feb-20 02:00N 34°20' E 132°30'0 0.0
2018-Feb-20 01:30N 34°20' E 132°30'0 0.0
2018-Feb-20 01:00N 34°20' E 132°30'0 0.0
2018-Feb-20 00:30N 34°20' E 132°30'0 0.0
2018-Feb-20 00:00N 34°20' E 132°30'0 0.0
2018-Feb-19 23:27N 34°20' E 132°30'0 0.0
2018-Feb-19 23:00N 34°20' E 132°30'0 0.0
2018-Feb-19 22:30N 34°20' E 132°30'0 0.1
2018-Feb-19 22:00N 34°20' E 132°30'1 1.8
2018-Feb-19 21:23N 34°19' E 132°29'0 0.1
2018-Feb-19 20:59N 34°19' E 132°29'0 0.0
2018-Feb-19 20:26N 34°19' E 132°29'0 0.0
2018-Feb-19 19:59N 34°19' E 132°29'0 0.1
2018-Feb-19 19:29N 34°19' E 132°29'0 0.0
2018-Feb-19 18:59N 34°19' E 132°29'0 0.1
2018-Feb-19 18:29N 34°19' E 132°29'0 0.0
2018-Feb-19 17:59N 34°19' E 132°29'0 0.1
2018-Feb-19 17:29N 34°19' E 132°29'0 0.0
2018-Feb-19 16:59N 34°19' E 132°29'0 0.1
2018-Feb-19 16:26N 34°19' E 132°29'0 0.0
2018-Feb-19 15:59N 34°19' E 132°29'0 0.0
2018-Feb-19 15:29N 34°19' E 132°29'0 0.0
2018-Feb-19 14:56N 34°19' E 132°29'0 0.0
2018-Feb-19 14:29N 34°19' E 132°29'0 0.0
2018-Feb-19 13:59N 34°19' E 132°29'0 0.0
2018-Feb-19 13:29N 34°19' E 132°29'0 0.0
2018-Feb-19 12:59N 34°19' E 132°29'0 0.0
2018-Feb-19 12:29N 34°19' E 132°29'2 5.2
2018-Feb-19 12:00N 34°18' E 132°27'611.8
2018-Feb-19 11:30N 34°13' E 132°22'713.3
2018-Feb-19 11:00N 34°07' E 132°25'813.3
2018-Feb-19 10:26N 34°03' E 132°33'613.8
2018-Feb-19 10:00N 34°05' E 132°39'7712.8
2018-Feb-19 03:59N 34°26' E 134°08'813.0
2018-Feb-19 03:24N 34°25' E 134°17'513.6
2018-Feb-19 03:00N 34°27' E 134°23'713.7
2018-Feb-19 02:29N 34°31' E 134°30'713.8
2018-Feb-19 02:00N 34°35' E 134°37'713.9
2018-Feb-19 01:30N 34°39' E 134°44'713.4
2018-Feb-19 01:00N 34°43' E 134°51'1 0.8
2018-Feb-19 00:18N 34°43' E 134°51'0 0.2
2018-Feb-19 00:00N 34°43' E 134°51'0 0.1
2018-Feb-18 23:24N 34°43' E 134°51'0 0.0
2018-Feb-18 22:42N 34°43' E 134°51'0 0.0
2018-Feb-18 22:30N 34°43' E 134°51'1 1.5
2018-Feb-18 22:00N 34°42' E 134°50'2 0.2
2018-Feb-18 12:39N 34°44' E 134°49'0 1.6
2018-Feb-18 12:27N 34°43' E 134°49'2 4.3
2018-Feb-18 12:00N 34°42' E 134°50'1 0.3
2018-Feb-18 07:26N 34°43' E 134°51'0 0.0
2018-Feb-18 06:44N 34°43' E 134°51'0 0.0
2018-Feb-18 06:29N 34°43' E 134°51'0 0.0
2018-Feb-18 05:56N 34°43' E 134°51'0 0.0
2018-Feb-18 05:05N 34°43' E 134°51'0 0.0
2018-Feb-18 03:47N 34°43' E 134°51'0 0.0
2018-Feb-18 02:51N 34°43' E 134°51'1 2.3
2018-Feb-18 02:30N 34°42' E 134°50'5 9.0
2018-Feb-18 02:00N 34°38' E 134°53'815.4
2018-Feb-18 01:30N 34°37' E 135°02'612.7
2018-Feb-18 01:01N 34°31' E 135°04'714.2
2018-Feb-18 00:31N 34°24' E 135°02'714.6
2018-Feb-18 00:01N 34°17' E 134°59'714.2
2018-Feb-17 23:30N 34°10' E 135°01'713.4
2018-Feb-17 23:01N 34°03' E 135°02'713.3
2018-Feb-17 22:30N 33°57' E 135°03'68 9.5
2018-Feb-17 15:17N 33°58' E 136°25'5012.1
2018-Feb-17 11:08N 34°29' E 137°13'4911.0
2018-Feb-17 06:43N 34°35' E 138°11'5 9.8
2018-Feb-17 06:16N 34°35' E 138°17'311.5
2018-Feb-17 06:00N 34°37' E 138°20'511.0
2018-Feb-17 05:30N 34°39' E 138°26'5 9.8
2018-Feb-17 04:59N 34°39' E 138°32'5 8.8
2018-Feb-17 04:27N 34°38' E 138°38'4 9.2
2018-Feb-17 04:00N 34°37' E 138°43'5 8.8
2018-Feb-17 03:29N 34°36' E 138°48'4 7.9
2018-Feb-17 03:00N 34°36' E 138°53'4 7.2
2018-Feb-17 02:30N 34°36' E 138°57'510.6
2018-Feb-17 02:00N 34°40' E 139°01'712.1
2018-Feb-17 01:26N 34°46' E 139°06'912.5
2018-Feb-17 00:44N 34°54' E 139°12'312.3
2018-Feb-17 00:29N 34°56' E 139°14'612.3
2018-Feb-16 23:59N 34°59' E 139°21'612.5
2018-Feb-16 23:29N 35°02' E 139°28'813.0
2018-Feb-16 22:54N 35°05' E 139°36'613.8
2018-Feb-16 22:28N 35°08' E 139°42'613.3
2018-Feb-16 22:00N 35°13' E 139°46'612.1
2018-Feb-16 21:30N 35°19' E 139°43'612.2
2018-Feb-16 21:00N 35°25' E 139°44'713.4
2018-Feb-16 20:30N 35°29' E 139°50'1013.2
2018-Feb-16 19:43N 35°38' E 139°58'210.6
2018-Feb-16 19:30N 35°40' E 139°57'0 0.0
2018-Feb-16 04:25N 35°39' E 139°58'511.5
2018-Feb-16 04:00N 35°35' E 139°57'613.1
2018-Feb-16 03:30N 35°29' E 139°52'613.1
2018-Feb-16 03:00N 35°25' E 139°47'612.9
2018-Feb-16 02:30N 35°18' E 139°44'612.3
2018-Feb-16 02:00N 35°13' E 139°47'612.7
2018-Feb-16 01:30N 35°07' E 139°42'712.8
2018-Feb-16 00:57N 35°02' E 139°36'2414.2
2018-Feb-15 23:15N 34°47' E 139°13'413.3
2018-Feb-15 22:58N 34°44' E 139°10'613.1
2018-Feb-15 22:30N 34°41' E 139°04'912.3
2018-Feb-15 21:48N 34°36' E 138°56'512.0
2018-Feb-15 21:23N 34°34' E 138°50'512.5
2018-Feb-15 20:59N 34°33' E 138°44'18511.6
2018-Feb-15 05:04N 33°47' E 135°07'513.6
2018-Feb-15 04:41N 33°51' E 135°03'313.7
2018-Feb-15 04:30N 33°52' E 135°01'713.3
2018-Feb-15 04:00N 33°57' E 134°55'713.2
2018-Feb-15 03:27N 34°03' E 134°50'613.6
2018-Feb-15 03:00N 34°08' E 134°45'714.1
2018-Feb-15 02:28N 34°14' E 134°39'713.1
2018-Feb-15 01:57N 34°18' E 134°33'9010.7
2018-Feb-14 17:35N 34°01' E 132°46'111.3
2018-Feb-14 17:30N 34°00' E 132°45'510.9
2018-Feb-14 17:00N 33°56' E 132°41'511.0
2018-Feb-14 16:30N 33°53' E 132°36'611.8
2018-Feb-14 15:59N 33°49' E 132°31'2812.0
2018-Feb-14 13:40N 33°44' E 131°58'313.7
2018-Feb-14 13:29N 33°45' E 131°55'713.5
2018-Feb-14 12:58N 33°51' E 131°50'713.4
2018-Feb-14 12:29N 33°56' E 131°46'611.3
2018-Feb-14 11:55N 34°03' E 131°47'0 0.0
2018-Feb-13 09:57N 34°03' E 131°47'5 9.4
2018-Feb-13 09:24N 33°58' E 131°44'513.5
2018-Feb-13 09:00N 33°57' E 131°38'713.1
2018-Feb-13 08:30N 33°55' E 131°30'713.1
2018-Feb-13 08:00N 33°54' E 131°23'612.8
2018-Feb-13 07:30N 33°52' E 131°15'713.4
2018-Feb-13 07:00N 33°52' E 131°07'612.8
2018-Feb-13 06:31N 33°52' E 130°60'1 1.3
2018-Feb-13 05:58N 33°53' E 130°60'0 0.0
2018-Feb-13 05:28N 33°53' E 130°60'0 0.0
2018-Feb-13 04:58N 33°53' E 130°60'0 0.0
2018-Feb-13 04:28N 33°53' E 130°60'0 0.0
2018-Feb-13 03:58N 33°53' E 130°60'0 0.0
2018-Feb-13 03:28N 33°53' E 130°60'0 0.0
2018-Feb-13 02:58N 33°53' E 130°60'0 0.0
2018-Feb-13 02:28N 33°53' E 130°60'0 0.0
2018-Feb-13 01:58N 33°53' E 130°60'0 0.0
2018-Feb-13 01:28N 33°53' E 130°60'0 0.0
2018-Feb-13 00:58N 33°53' E 130°60'0 0.0
2018-Feb-13 00:28N 33°53' E 130°60'0 0.0
2018-Feb-12 23:58N 33°53' E 130°60'0 0.0
2018-Feb-12 23:28N 33°53' E 130°60'0 0.0
2018-Feb-12 22:58N 33°53' E 130°60'0 0.0
2018-Feb-12 22:28N 33°53' E 130°60'0 0.0
2018-Feb-12 21:58N 33°53' E 130°60'0 0.0
2018-Feb-12 21:28N 33°53' E 130°60'0 0.0
2018-Feb-12 20:58N 33°53' E 130°60'0 0.0
2018-Feb-12 20:28N 33°53' E 130°60'0 0.0
2018-Feb-12 19:58N 33°53' E 130°60'0 0.0
2018-Feb-12 19:28N 33°53' E 130°60'0 0.0
2018-Feb-12 18:58N 33°53' E 130°60'0 0.0
2018-Feb-12 18:28N 33°53' E 130°60'0 0.0
2018-Feb-12 17:58N 33°53' E 130°60'0 0.0
2018-Feb-12 17:28N 33°53' E 130°60'0 0.0
2018-Feb-12 16:58N 33°53' E 130°60'0 0.0
2018-Feb-12 16:28N 33°53' E 130°60'0 0.0
2018-Feb-12 15:58N 33°53' E 130°60'0 0.0
2018-Feb-12 15:16N 33°53' E 130°60'0 0.0
2018-Feb-12 14:58N 33°53' E 130°60'0 0.0
2018-Feb-12 14:28N 33°53' E 130°60'0 0.0
2018-Feb-12 13:58N 33°53' E 130°60'0 0.0
2018-Feb-12 13:28N 33°53' E 130°60'0 0.0
2018-Feb-12 12:58N 33°53' E 130°60'0 0.0
2018-Feb-12 12:28N 33°53' E 130°60'0 0.0
2018-Feb-12 12:01N 33°53' E 130°60'0 0.0
2018-Feb-12 11:28N 33°53' E 130°60'0 0.0
2018-Feb-12 10:58N 33°53' E 130°60'0 0.0
2018-Feb-12 10:28N 33°53' E 130°60'0 0.0
2018-Feb-12 09:58N 33°53' E 130°60'0 0.0
2018-Feb-12 09:28N 33°53' E 130°60'0 0.0
2018-Feb-12 08:58N 33°53' E 130°60'0 0.0
2018-Feb-12 08:28N 33°53' E 130°60'0 0.0
2018-Feb-12 07:55N 33°53' E 130°60'0 0.0
2018-Feb-12 07:28N 33°53' E 130°60'0 0.0
2018-Feb-12 06:58N 33°53' E 130°60'0 0.0
2018-Feb-12 06:28N 33°53' E 130°60'0 0.0
2018-Feb-12 05:58N 33°53' E 130°60'0 0.0
2018-Feb-12 05:27N 33°53' E 130°60'0 0.0
2018-Feb-12 04:58N 33°53' E 130°60'0 0.0
2018-Feb-12 04:28N 33°53' E 130°60'0 0.0
2018-Feb-12 03:57N 33°53' E 130°60'0 0.0
2018-Feb-12 03:28N 33°53' E 130°60'0 0.0
2018-Feb-12 03:01N 33°53' E 130°60'0 0.0
2018-Feb-12 02:28N 33°53' E 130°60'0 0.0
2018-Feb-12 01:57N 33°53' E 130°60'0 0.0
2018-Feb-12 01:28N 33°53' E 130°60'0 0.0
2018-Feb-12 00:55N 33°53' E 130°60'0 0.0
2018-Feb-12 00:28N 33°53' E 130°60'0 0.0
2018-Feb-12 00:01N 33°53' E 130°60'0 0.0
2018-Feb-11 23:28N 33°53' E 130°60'0 0.0
2018-Feb-11 22:55N 33°53' E 130°60'0 0.0
2018-Feb-11 22:30N 33°53' E 130°60'2 3.6
2018-Feb-11 22:00N 33°53' E 131°02'612.6
2018-Feb-11 21:30N 33°52' E 131°09'612.7
2018-Feb-11 21:00N 33°51' E 131°17'712.8
2018-Feb-11 20:30N 33°50' E 131°24'613.0
2018-Feb-11 20:00N 33°48' E 131°32'2512.3
2018-Feb-11 18:00N 33°46' E 132°02'912.8
2018-Feb-11 17:20N 33°49' E 132°11'1813.0
2018-Feb-11 15:55N 33°53' E 132°33'613.2
2018-Feb-11 15:30N 33°56' E 132°39'713.7
2018-Feb-11 15:00N 34°00' E 132°44'8212.0
2018-Feb-11 08:10N 34°25' E 134°19'313.4
2018-Feb-11 07:55N 34°26' E 134°22'613.0
2018-Feb-11 07:30N 34°30' E 134°28'713.0
2018-Feb-11 07:00N 34°34' E 134°34'612.7
2018-Feb-11 06:30N 34°37' E 134°40'612.7
2018-Feb-11 06:00N 34°41' E 134°46'3 0.1
2018-Feb-10 11:48N 34°43' E 134°49'1 1.8
2018-Feb-10 11:30N 34°43' E 134°48'2 1.4
2018-Feb-10 09:59N 34°42' E 134°46'0 0.0
2018-Feb-10 08:56N 34°42' E 134°46'0 0.0
2018-Feb-10 08:14N 34°42' E 134°46'0 0.0
2018-Feb-10 07:56N 34°42' E 134°46'0 0.0
2018-Feb-10 07:20N 34°42' E 134°46'0 0.0
2018-Feb-10 06:56N 34°42' E 134°46'0 0.0
2018-Feb-10 06:26N 34°42' E 134°46'  
Track history (hours):
 
Tides and Currents Weather Stations Pressure Air Temp Water Temp Dewpoint Dewpoint Depression Visibility Wind Speed Wind Dir Waves Ship Positions

Shin Yu Maru

Last reported at 2018-Feb-20 05:30 UTC. Time now 2018-Feb-20 05:38 UTC.
Position N 34°20' E 132°30'.

Length 74 m; draft 4.7 m.

Type: Cargo ship. MMSI: 431003256.

Date/timePositionNaut miles runAvg speedWind from/ knotsBaromVisibWave heightAir tempDewpointWater temp
2018-Feb-20 05:30N 34°20' E 132°30'0 0.0
2018-Feb-20 05:00N 34°20' E 132°30'0 0.0
2018-Feb-20 04:27N 34°20' E 132°30'0 0.0
2018-Feb-20 04:00N 34°20' E 132°30'0 0.0
2018-Feb-20 03:30N 34°20' E 132°30'0 0.0
2018-Feb-20 03:00N 34°20' E 132°30'0 0.0
2018-Feb-20 02:30N 34°20' E 132°30'0 0.0
2018-Feb-20 02:00N 34°20' E 132°30'0 0.0
2018-Feb-20 01:30N 34°20' E 132°30'0 0.0
2018-Feb-20 01:00N 34°20' E 132°30'0 0.0
2018-Feb-20 00:30N 34°20' E 132°30'0 0.0
2018-Feb-20 00:00N 34°20' E 132°30'0 0.0
2018-Feb-19 23:27N 34°20' E 132°30'0 0.0
2018-Feb-19 23:00N 34°20' E 132°30'0 0.0
2018-Feb-19 22:30N 34°20' E 132°30'0 0.1
2018-Feb-19 22:00N 34°20' E 132°30'1 1.8
2018-Feb-19 21:23N 34°19' E 132°29'0 0.1
2018-Feb-19 20:59N 34°19' E 132°29'0 0.0
2018-Feb-19 20:26N 34°19' E 132°29'0 0.0
2018-Feb-19 19:59N 34°19' E 132°29'0 0.1
2018-Feb-19 19:29N 34°19' E 132°29'0 0.0
2018-Feb-19 18:59N 34°19' E 132°29'0 0.1
2018-Feb-19 18:29N 34°19' E 132°29'0 0.0
2018-Feb-19 17:59N 34°19' E 132°29'0 0.1
2018-Feb-19 17:29N 34°19' E 132°29'0 0.0
2018-Feb-19 16:59N 34°19' E 132°29'0 0.1
2018-Feb-19 16:26N 34°19' E 132°29'0 0.0
2018-Feb-19 15:59N 34°19' E 132°29'0 0.0
2018-Feb-19 15:29N 34°19' E 132°29'0 0.0
2018-Feb-19 14:56N 34°19' E 132°29'0 0.0
2018-Feb-19 14:29N 34°19' E 132°29'0 0.0
2018-Feb-19 13:59N 34°19' E 132°29'0 0.0
2018-Feb-19 13:29N 34°19' E 132°29'0 0.0
2018-Feb-19 12:59N 34°19' E 132°29'0 0.0
2018-Feb-19 12:29N 34°19' E 132°29'2 5.2
2018-Feb-19 12:00N 34°18' E 132°27'611.8
2018-Feb-19 11:30N 34°13' E 132°22'713.3
2018-Feb-19 11:00N 34°07' E 132°25'813.3
2018-Feb-19 10:26N 34°03' E 132°33'613.8
2018-Feb-19 10:00N 34°05' E 132°39'7712.8
2018-Feb-19 03:59N 34°26' E 134°08'813.0
2018-Feb-19 03:24N 34°25' E 134°17'513.6
2018-Feb-19 03:00N 34°27' E 134°23'713.7
2018-Feb-19 02:29N 34°31' E 134°30'713.8
2018-Feb-19 02:00N 34°35' E 134°37'713.9
2018-Feb-19 01:30N 34°39' E 134°44'713.4
2018-Feb-19 01:00N 34°43' E 134°51'1 0.8
2018-Feb-19 00:18N 34°43' E 134°51'0 0.2
2018-Feb-19 00:00N 34°43' E 134°51'0 0.1
2018-Feb-18 23:24N 34°43' E 134°51'0 0.0
2018-Feb-18 22:42N 34°43' E 134°51'0 0.0
2018-Feb-18 22:30N 34°43' E 134°51'1 1.5
2018-Feb-18 22:00N 34°42' E 134°50'2 0.2
2018-Feb-18 12:39N 34°44' E 134°49'0 1.6
2018-Feb-18 12:27N 34°43' E 134°49'2 4.3
2018-Feb-18 12:00N 34°42' E 134°50'1 0.3
2018-Feb-18 07:26N 34°43' E 134°51'0 0.0
2018-Feb-18 06:44N 34°43' E 134°51'0 0.0
2018-Feb-18 06:29N 34°43' E 134°51'0 0.0
2018-Feb-18 05:56N 34°43' E 134°51'0 0.0
2018-Feb-18 05:05N 34°43' E 134°51'0 0.0
2018-Feb-18 03:47N 34°43' E 134°51'0 0.0
2018-Feb-18 02:51N 34°43' E 134°51'1 2.3
2018-Feb-18 02:30N 34°42' E 134°50'5 9.0
2018-Feb-18 02:00N 34°38' E 134°53'815.4
2018-Feb-18 01:30N 34°37' E 135°02'612.7
2018-Feb-18 01:01N 34°31' E 135°04'714.2
2018-Feb-18 00:31N 34°24' E 135°02'714.6
2018-Feb-18 00:01N 34°17' E 134°59'714.2
2018-Feb-17 23:30N 34°10' E 135°01'713.4
2018-Feb-17 23:01N 34°03' E 135°02'713.3
2018-Feb-17 22:30N 33°57' E 135°03'68 9.5
2018-Feb-17 15:17N 33°58' E 136°25'5012.1
2018-Feb-17 11:08N 34°29' E 137°13'4911.0
2018-Feb-17 06:43N 34°35' E 138°11'5 9.8
2018-Feb-17 06:16N 34°35' E 138°17'311.5
2018-Feb-17 06:00N 34°37' E 138°20'511.0
2018-Feb-17 05:30N 34°39' E 138°26'5 9.8
2018-Feb-17 04:59N 34°39' E 138°32'5 8.8
2018-Feb-17 04:27N 34°38' E 138°38'4 9.2
2018-Feb-17 04:00N 34°37' E 138°43'5 8.8
2018-Feb-17 03:29N 34°36' E 138°48'4 7.9
2018-Feb-17 03:00N 34°36' E 138°53'4 7.2
2018-Feb-17 02:30N 34°36' E 138°57'510.6
2018-Feb-17 02:00N 34°40' E 139°01'712.1
2018-Feb-17 01:26N 34°46' E 139°06'912.5
2018-Feb-17 00:44N 34°54' E 139°12'312.3
2018-Feb-17 00:29N 34°56' E 139°14'612.3
2018-Feb-16 23:59N 34°59' E 139°21'612.5
2018-Feb-16 23:29N 35°02' E 139°28'813.0
2018-Feb-16 22:54N 35°05' E 139°36'613.8
2018-Feb-16 22:28N 35°08' E 139°42'613.3
2018-Feb-16 22:00N 35°13' E 139°46'612.1
2018-Feb-16 21:30N 35°19' E 139°43'612.2
2018-Feb-16 21:00N 35°25' E 139°44'713.4
2018-Feb-16 20:30N 35°29' E 139°50'1013.2
2018-Feb-16 19:43N 35°38' E 139°58'210.6
2018-Feb-16 19:30N 35°40' E 139°57'0 0.0
2018-Feb-16 04:25N 35°39' E 139°58'511.5
2018-Feb-16 04:00N 35°35' E 139°57'613.1
2018-Feb-16 03:30N 35°29' E 139°52'613.1
2018-Feb-16 03:00N 35°25' E 139°47'612.9
2018-Feb-16 02:30N 35°18' E 139°44'612.3
2018-Feb-16 02:00N 35°13' E 139°47'612.7
2018-Feb-16 01:30N 35°07' E 139°42'712.8
2018-Feb-16 00:57N 35°02' E 139°36'2414.2
2018-Feb-15 23:15N 34°47' E 139°13'413.3
2018-Feb-15 22:58N 34°44' E 139°10'613.1
2018-Feb-15 22:30N 34°41' E 139°04'912.3
2018-Feb-15 21:48N 34°36' E 138°56'512.0
2018-Feb-15 21:23N 34°34' E 138°50'512.5
2018-Feb-15 20:59N 34°33' E 138°44'18511.6
2018-Feb-15 05:04N 33°47' E 135°07'513.6
2018-Feb-15 04:41N 33°51' E 135°03'313.7
2018-Feb-15 04:30N 33°52' E 135°01'713.3
2018-Feb-15 04:00N 33°57' E 134°55'713.2
2018-Feb-15 03:27N 34°03' E 134°50'613.6
2018-Feb-15 03:00N 34°08' E 134°45'714.1
2018-Feb-15 02:28N 34°14' E 134°39'713.1
2018-Feb-15 01:57N 34°18' E 134°33'9010.7
2018-Feb-14 17:35N 34°01' E 132°46'111.3
2018-Feb-14 17:30N 34°00' E 132°45'510.9
2018-Feb-14 17:00N 33°56' E 132°41'511.0
2018-Feb-14 16:30N 33°53' E 132°36'611.8
2018-Feb-14 15:59N 33°49' E 132°31'2812.0
2018-Feb-14 13:40N 33°44' E 131°58'313.7
2018-Feb-14 13:29N 33°45' E 131°55'713.5
2018-Feb-14 12:58N 33°51' E 131°50'713.4
2018-Feb-14 12:29N 33°56' E 131°46'611.3
2018-Feb-14 11:55N 34°03' E 131°47'0 0.0
2018-Feb-13 09:57N 34°03' E 131°47'5 9.4
2018-Feb-13 09:24N 33°58' E 131°44'513.5
2018-Feb-13 09:00N 33°57' E 131°38'713.1
2018-Feb-13 08:30N 33°55' E 131°30'713.1
2018-Feb-13 08:00N 33°54' E 131°23'612.8
2018-Feb-13 07:30N 33°52' E 131°15'713.4
2018-Feb-13 07:00N 33°52' E 131°07'612.8
2018-Feb-13 06:31N 33°52' E 130°60'1 1.3
2018-Feb-13 05:58N 33°53' E 130°60'0 0.0
2018-Feb-13 05:28N 33°53' E 130°60'0 0.0
2018-Feb-13 04:58N 33°53' E 130°60'0 0.0
2018-Feb-13 04:28N 33°53' E 130°60'0 0.0
2018-Feb-13 03:58N 33°53' E 130°60'0 0.0
2018-Feb-13 03:28N 33°53' E 130°60'0 0.0
2018-Feb-13 02:58N 33°53' E 130°60'0 0.0
2018-Feb-13 02:28N 33°53' E 130°60'0 0.0
2018-Feb-13 01:58N 33°53' E 130°60'0 0.0
2018-Feb-13 01:28N 33°53' E 130°60'0 0.0
2018-Feb-13 00:58N 33°53' E 130°60'0 0.0
2018-Feb-13 00:28N 33°53' E 130°60'0 0.0
2018-Feb-12 23:58N 33°53' E 130°60'0 0.0
2018-Feb-12 23:28N 33°53' E 130°60'0 0.0
2018-Feb-12 22:58N 33°53' E 130°60'0 0.0
2018-Feb-12 22:28N 33°53' E 130°60'0 0.0
2018-Feb-12 21:58N 33°53' E 130°60'0 0.0
2018-Feb-12 21:28N 33°53' E 130°60'0 0.0
2018-Feb-12 20:58N 33°53' E 130°60'0 0.0
2018-Feb-12 20:28N 33°53' E 130°60'0 0.0
2018-Feb-12 19:58N 33°53' E 130°60'0 0.0
2018-Feb-12 19:28N 33°53' E 130°60'0 0.0
2018-Feb-12 18:58N 33°53' E 130°60'0 0.0
2018-Feb-12 18:28N 33°53' E 130°60'0 0.0
2018-Feb-12 17:58N 33°53' E 130°60'0 0.0
2018-Feb-12 17:28N 33°53' E 130°60'0 0.0
2018-Feb-12 16:58N 33°53' E 130°60'0 0.0
2018-Feb-12 16:28N 33°53' E 130°60'0 0.0
2018-Feb-12 15:58N 33°53' E 130°60'0 0.0
2018-Feb-12 15:16N 33°53' E 130°60'0 0.0
2018-Feb-12 14:58N 33°53' E 130°60'0 0.0
2018-Feb-12 14:28N 33°53' E 130°60'0 0.0
2018-Feb-12 13:58N 33°53' E 130°60'0 0.0
2018-Feb-12 13:28N 33°53' E 130°60'0 0.0
2018-Feb-12 12:58N 33°53' E 130°60'0 0.0
2018-Feb-12 12:28N 33°53' E 130°60'0 0.0
2018-Feb-12 12:01N 33°53' E 130°60'0 0.0
2018-Feb-12 11:28N 33°53' E 130°60'0 0.0
2018-Feb-12 10:58N 33°53' E 130°60'0 0.0
2018-Feb-12 10:28N 33°53' E 130°60'0 0.0
2018-Feb-12 09:58N 33°53' E 130°60'0 0.0
2018-Feb-12 09:28N 33°53' E 130°60'0 0.0
2018-Feb-12 08:58N 33°53' E 130°60'0 0.0
2018-Feb-12 08:28N 33°53' E 130°60'0 0.0
2018-Feb-12 07:55N 33°53' E 130°60'0 0.0
2018-Feb-12 07:28N 33°53' E 130°60'0 0.0
2018-Feb-12 06:58N 33°53' E 130°60'0 0.0
2018-Feb-12 06:28N 33°53' E 130°60'0 0.0
2018-Feb-12 05:58N 33°53' E 130°60'0 0.0
2018-Feb-12 05:27N 33°53' E 130°60'0 0.0
2018-Feb-12 04:58N 33°53' E 130°60'0 0.0
2018-Feb-12 04:28N 33°53' E 130°60'0 0.0
2018-Feb-12 03:57N 33°53' E 130°60'0 0.0
2018-Feb-12 03:28N 33°53' E 130°60'0 0.0
2018-Feb-12 03:01N 33°53' E 130°60'0 0.0
2018-Feb-12 02:28N 33°53' E 130°60'0 0.0
2018-Feb-12 01:57N 33°53' E 130°60'0 0.0
2018-Feb-12 01:28N 33°53' E 130°60'0 0.0
2018-Feb-12 00:55N 33°53' E 130°60'0 0.0
2018-Feb-12 00:28N 33°53' E 130°60'0 0.0
2018-Feb-12 00:01N 33°53' E 130°60'0 0.0
2018-Feb-11 23:28N 33°53' E 130°60'0 0.0
2018-Feb-11 22:55N 33°53' E 130°60'0 0.0
2018-Feb-11 22:30N 33°53' E 130°60'2 3.6
2018-Feb-11 22:00N 33°53' E 131°02'612.6
2018-Feb-11 21:30N 33°52' E 131°09'612.7
2018-Feb-11 21:00N 33°51' E 131°17'712.8
2018-Feb-11 20:30N 33°50' E 131°24'613.0
2018-Feb-11 20:00N 33°48' E 131°32'2512.3
2018-Feb-11 18:00N 33°46' E 132°02'912.8
2018-Feb-11 17:20N 33°49' E 132°11'1813.0
2018-Feb-11 15:55N 33°53' E 132°33'613.2
2018-Feb-11 15:30N 33°56' E 132°39'713.7
2018-Feb-11 15:00N 34°00' E 132°44'8212.0
2018-Feb-11 08:10N 34°25' E 134°19'313.4
2018-Feb-11 07:55N 34°26' E 134°22'613.0
2018-Feb-11 07:30N 34°30' E 134°28'713.0
2018-Feb-11 07:00N 34°34' E 134°34'612.7
2018-Feb-11 06:30N 34°37' E 134°40'612.7
2018-Feb-11 06:00N 34°41' E 134°46'3 0.1
2018-Feb-10 11:48N 34°43' E 134°49'1 1.8
2018-Feb-10 11:30N 34°43' E 134°48'2 1.4
2018-Feb-10 09:59N 34°42' E 134°46'0 0.0
2018-Feb-10 08:56N 34°42' E 134°46'0 0.0
2018-Feb-10 08:14N 34°42' E 134°46'0 0.0
2018-Feb-10 07:56N 34°42' E 134°46'0 0.0
2018-Feb-10 07:20N 34°42' E 134°46'0 0.0
2018-Feb-10 06:56N 34°42' E 134°46'0 0.0
2018-Feb-10 06:26N 34°42' E 134°46'  

Dump ship's entire track history